sensor_id;sensor_type;location;lat;lon;timestamp;pressure;altitude;pressure_sealevel;temperature;humidity
52032;BME280;38044;45.148;39.604;2023-10-08T00:00:26;100976.97;;;15.24;62.65
52032;BME280;38044;45.148;39.604;2023-10-08T00:03:10;100974.91;;;15.21;62.60
52032;BME280;38044;45.148;39.604;2023-10-08T00:05:37;100984.66;;;15.22;62.82
52032;BME280;38044;45.148;39.604;2023-10-08T00:08:03;100971.03;;;15.14;62.96
52032;BME280;38044;45.148;39.604;2023-10-08T00:10:37;100968.56;;;15.26;62.83
52032;BME280;38044;45.148;39.604;2023-10-08T00:13:06;100976.34;;;15.27;62.83
52032;BME280;38044;45.148;39.604;2023-10-08T00:15:36;100962.53;;;15.29;62.45
52032;BME280;38044;45.148;39.604;2023-10-08T00:18:03;100954.31;;;15.12;63.23
52032;BME280;38044;45.148;39.604;2023-10-08T00:20:31;100955.16;;;15.21;63.01
52032;BME280;38044;45.148;39.604;2023-10-08T00:23:08;100945.72;;;15.09;63.17
52032;BME280;38044;45.148;39.604;2023-10-08T00:25:35;100952.03;;;15.05;63.26
52032;BME280;38044;45.148;39.604;2023-10-08T00:28:07;100941.88;;;15.10;62.78
52032;BME280;38044;45.148;39.604;2023-10-08T00:30:39;100935.38;;;15.12;62.91
52032;BME280;38044;45.148;39.604;2023-10-08T00:33:05;100937.59;;;15.09;62.84
52032;BME280;38044;45.148;39.604;2023-10-08T00:35:30;100935.63;;;15.01;62.73
52032;BME280;38044;45.148;39.604;2023-10-08T00:37:56;100920.38;;;15.05;62.38
52032;BME280;38044;45.148;39.604;2023-10-08T00:40:38;100929.03;;;15.25;62.13
52032;BME280;38044;45.148;39.604;2023-10-08T00:43:05;100921.97;;;15.06;62.65
52032;BME280;38044;45.148;39.604;2023-10-08T00:45:39;100913.19;;;15.01;62.69
52032;BME280;38044;45.148;39.604;2023-10-08T00:48:11;100908.22;;;14.94;63.00
52032;BME280;38044;45.148;39.604;2023-10-08T00:50:42;100896.94;;;15.01;62.70
52032;BME280;38044;45.148;39.604;2023-10-08T00:53:10;100906.97;;;15.00;62.81
52032;BME280;38044;45.148;39.604;2023-10-08T00:55:49;100911.69;;;14.86;63.06
52032;BME280;38044;45.148;39.604;2023-10-08T00:58:20;100889.53;;;14.84;63.30
52032;BME280;38044;45.148;39.604;2023-10-08T01:00:54;100898.03;;;14.91;63.14
52032;BME280;38044;45.148;39.604;2023-10-08T01:03:28;100897.69;;;14.93;63.16
52032;BME280;38044;45.148;39.604;2023-10-08T01:05:55;100898.84;;;15.00;63.08
52032;BME280;38044;45.148;39.604;2023-10-08T01:08:22;100890.91;;;15.04;62.80
52032;BME280;38044;45.148;39.604;2023-10-08T01:11:20;100896.66;;;15.11;63.08
52032;BME280;38044;45.148;39.604;2023-10-08T01:14:11;100893.13;;;15.10;63.18
52032;BME280;38044;45.148;39.604;2023-10-08T01:16:37;100893.94;;;15.02;63.54
52032;BME280;38044;45.148;39.604;2023-10-08T01:19:04;100882.78;;;15.04;63.65
52032;BME280;38044;45.148;39.604;2023-10-08T01:21:37;100881.84;;;15.08;63.51
52032;BME280;38044;45.148;39.604;2023-10-08T01:24:06;100879.63;;;15.19;63.34
52032;BME280;38044;45.148;39.604;2023-10-08T01:26:33;100876.13;;;15.19;63.20
52032;BME280;38044;45.148;39.604;2023-10-08T01:29:00;100868.63;;;15.16;63.34
52032;BME280;38044;45.148;39.604;2023-10-08T01:31:32;100875.19;;;15.15;63.50
52032;BME280;38044;45.148;39.604;2023-10-08T01:33:58;100878.81;;;15.10;63.75
52032;BME280;38044;45.148;39.604;2023-10-08T01:36:26;100882.63;;;15.09;64.05
52032;BME280;38044;45.148;39.604;2023-10-08T01:38:53;100877.06;;;15.05;64.24
52032;BME280;38044;45.148;39.604;2023-10-08T01:41:21;100880.59;;;15.15;63.98
52032;BME280;38044;45.148;39.604;2023-10-08T01:43:57;100876.13;;;15.19;64.21
52032;BME280;38044;45.148;39.604;2023-10-08T01:46:24;100880.09;;;15.13;64.66
52032;BME280;38044;45.148;39.604;2023-10-08T01:48:51;100867.19;;;15.09;64.69
52032;BME280;38044;45.148;39.604;2023-10-08T01:51:25;100876.13;;;15.19;64.09
52032;BME280;38044;45.148;39.604;2023-10-08T01:54:02;100870.25;;;15.17;64.65
52032;BME280;38044;45.148;39.604;2023-10-08T01:56:28;100862.28;;;15.20;64.18
52032;BME280;38044;45.148;39.604;2023-10-08T01:58:55;100860.25;;;15.26;63.84
52032;BME280;38044;45.148;39.604;2023-10-08T02:01:21;100851.66;;;15.41;63.12
52032;BME280;38044;45.148;39.604;2023-10-08T02:03:47;100854.84;;;15.43;63.27
52032;BME280;38044;45.148;39.604;2023-10-08T02:06:13;100837.81;;;15.51;62.56
52032;BME280;38044;45.148;39.604;2023-10-08T02:08:40;100850.25;;;15.52;62.82
52032;BME280;38044;45.148;39.604;2023-10-08T02:11:07;100842.44;;;15.60;62.56
52032;BME280;38044;45.148;39.604;2023-10-08T02:13:34;100829.72;;;15.69;62.21
52032;BME280;38044;45.148;39.604;2023-10-08T02:16:00;100832.84;;;15.53;62.58
52032;BME280;38044;45.148;39.604;2023-10-08T02:18:27;100836.06;;;15.55;62.65
52032;BME280;38044;45.148;39.604;2023-10-08T02:20:54;100839.25;;;15.58;62.63
52032;BME280;38044;45.148;39.604;2023-10-08T02:23:20;100834.78;;;15.62;62.83
52032;BME280;38044;45.148;39.604;2023-10-08T02:25:46;100833.19;;;15.43;63.16
52032;BME280;38044;45.148;39.604;2023-10-08T02:28:13;100820.13;;;15.45;63.20
52032;BME280;38044;45.148;39.604;2023-10-08T02:30:41;100835.41;;;15.59;62.84
52032;BME280;38044;45.148;39.604;2023-10-08T02:33:08;100834.63;;;15.58;62.98
52032;BME280;38044;45.148;39.604;2023-10-08T02:35:42;100841.06;;;15.71;62.59
52032;BME280;38044;45.148;39.604;2023-10-08T02:38:11;100825.72;;;15.66;62.99
52032;BME280;38044;45.148;39.604;2023-10-08T02:40:39;100821.72;;;15.64;63.42
52032;BME280;38044;45.148;39.604;2023-10-08T02:43:11;100818.53;;;15.62;63.80
52032;BME280;38044;45.148;39.604;2023-10-08T02:45:37;100814.56;;;15.68;63.62
52032;BME280;38044;45.148;39.604;2023-10-08T02:48:07;100809.63;;;15.79;63.20
52032;BME280;38044;45.148;39.604;2023-10-08T02:50:42;100804.53;;;15.77;63.64
52032;BME280;38044;45.148;39.604;2023-10-08T02:53:11;100812.34;;;15.87;63.27
52032;BME280;38044;45.148;39.604;2023-10-08T02:55:38;100808.50;;;15.97;62.82
52032;BME280;38044;45.148;39.604;2023-10-08T02:58:12;100790.63;;;15.96;62.83
52032;BME280;38044;45.148;39.604;2023-10-08T03:00:44;100784.13;;;15.97;62.94
52032;BME280;38044;45.148;39.604;2023-10-08T03:03:12;100794.13;;;15.96;63.08
52032;BME280;38044;45.148;39.604;2023-10-08T03:05:46;100800.69;;;15.95;63.22
52032;BME280;38044;45.148;39.604;2023-10-08T03:08:13;100772.94;;;15.98;63.00
52032;BME280;38044;45.148;39.604;2023-10-08T03:10:44;100771.16;;;16.11;62.51
52032;BME280;38044;45.148;39.604;2023-10-08T03:13:10;100765.75;;;16.11;62.47
52032;BME280;38044;45.148;39.604;2023-10-08T03:15:40;100781.03;;;16.16;62.68
52032;BME280;38044;45.148;39.604;2023-10-08T03:18:31;100763.69;;;15.99;63.17
52032;BME280;38044;45.148;39.604;2023-10-08T03:21:15;100761.41;;;16.19;62.72
52032;BME280;38044;45.148;39.604;2023-10-08T03:24:01;100758.25;;;16.08;63.29
52032;BME280;38044;45.148;39.604;2023-10-08T03:26:32;100758.06;;;16.13;62.94
52032;BME280;38044;45.148;39.604;2023-10-08T03:29:00;100759.34;;;16.16;62.85
52032;BME280;38044;45.148;39.604;2023-10-08T03:31:30;100755.50;;;16.26;62.50
52032;BME280;38044;45.148;39.604;2023-10-08T03:34:14;100747.66;;;16.24;62.79
52032;BME280;38044;45.148;39.604;2023-10-08T03:36:41;100748.31;;;16.21;62.90
52032;BME280;38044;45.148;39.604;2023-10-08T03:39:13;100744.19;;;16.15;63.31
52032;BME280;38044;45.148;39.604;2023-10-08T03:41:39;100741.59;;;16.27;62.96
52032;BME280;38044;45.148;39.604;2023-10-08T03:44:06;100729.66;;;16.28;62.62
52032;BME280;38044;45.148;39.604;2023-10-08T03:46:42;100732.56;;;16.53;62.19
52032;BME280;38044;45.148;39.604;2023-10-08T03:49:12;100728.47;;;16.67;62.04
52032;BME280;38044;45.148;39.604;2023-10-08T03:51:44;100731.25;;;16.59;62.50
52032;BME280;38044;45.148;39.604;2023-10-08T03:54:10;100727.25;;;16.56;62.48
52032;BME280;38044;45.148;39.604;2023-10-08T03:56:55;100724.72;;;16.60;62.50
52032;BME280;38044;45.148;39.604;2023-10-08T03:59:22;100722.91;;;16.64;62.46
52032;BME280;38044;45.148;39.604;2023-10-08T04:01:53;100716.28;;;16.82;62.08
52032;BME280;38044;45.148;39.604;2023-10-08T04:04:23;100711.31;;;17.14;61.42
52032;BME280;38044;45.148;39.604;2023-10-08T04:06:55;100731.16;;;17.48;60.14
52032;BME280;38044;45.148;39.604;2023-10-08T04:09:41;100720.03;;;17.95;58.81
52032;BME280;38044;45.148;39.604;2023-10-08T04:12:07;100727.78;;;18.17;58.23
52032;BME280;38044;45.148;39.604;2023-10-08T04:14:36;100725.63;;;18.23;58.21
52032;BME280;38044;45.148;39.604;2023-10-08T04:17:02;100723.94;;;18.67;56.84
52032;BME280;38044;45.148;39.604;2023-10-08T04:19:29;100728.34;;;19.37;55.30
52032;BME280;38044;45.148;39.604;2023-10-08T04:21:58;100730.72;;;19.79;54.27
52032;BME280;38044;45.148;39.604;2023-10-08T04:24:28;100734.38;;;20.31;52.87
52032;BME280;38044;45.148;39.604;2023-10-08T04:26:56;100724.53;;;20.93;51.55
52032;BME280;38044;45.148;39.604;2023-10-08T04:29:27;100720.44;;;21.03;50.65
52032;BME280;38044;45.148;39.604;2023-10-08T04:32:00;100715.69;;;21.00;50.78
52032;BME280;38044;45.148;39.604;2023-10-08T04:34:37;100711.47;;;20.03;52.37
52032;BME280;38044;45.148;39.604;2023-10-08T04:37:03;100706.63;;;20.29;52.80
52032;BME280;38044;45.148;39.604;2023-10-08T04:39:38;100704.91;;;20.87;51.61
52032;BME280;38044;45.148;39.604;2023-10-08T04:42:06;100715.94;;;21.30;50.58
52032;BME280;38044;45.148;39.604;2023-10-08T04:44:38;100715.59;;;21.93;49.86
52032;BME280;38044;45.148;39.604;2023-10-08T04:47:05;100711.91;;;22.28;48.45
52032;BME280;38044;45.148;39.604;2023-10-08T04:49:32;100703.97;;;22.46;48.04
52032;BME280;38044;45.148;39.604;2023-10-08T04:52:05;100709.66;;;22.87;47.43
52032;BME280;38044;45.148;39.604;2023-10-08T04:54:41;100709.28;;;23.15;46.32
52032;BME280;38044;45.148;39.604;2023-10-08T04:57:17;100716.44;;;23.60;46.42
52032;BME280;38044;45.148;39.604;2023-10-08T04:59:44;100718.38;;;23.56;46.10
52032;BME280;38044;45.148;39.604;2023-10-08T05:02:12;100718.03;;;23.61;45.87
52032;BME280;38044;45.148;39.604;2023-10-08T05:04:51;100720.41;;;24.45;44.73
52032;BME280;38044;45.148;39.604;2023-10-08T05:07:20;100723.38;;;24.81;43.93
52032;BME280;38044;45.148;39.604;2023-10-08T05:09:49;100722.47;;;25.25;43.21
52032;BME280;38044;45.148;39.604;2023-10-08T05:12:36;100716.31;;;24.24;44.81
52032;BME280;38044;45.148;39.604;2023-10-08T05:15:37;100708.97;;;24.98;43.49
52032;BME280;38044;45.148;39.604;2023-10-08T05:18:08;100709.84;;;25.20;43.46
52032;BME280;38044;45.148;39.604;2023-10-08T05:20:50;100702.78;;;25.19;43.57
52032;BME280;38044;45.148;39.604;2023-10-08T05:23:18;100706.75;;;25.29;43.52
52032;BME280;38044;45.148;39.604;2023-10-08T05:25:51;100713.06;;;25.36;43.27
52032;BME280;38044;45.148;39.604;2023-10-08T05:28:38;100710.31;;;25.33;43.61
52032;BME280;38044;45.148;39.604;2023-10-08T05:31:22;100703.44;;;24.94;43.89
52032;BME280;38044;45.148;39.604;2023-10-08T05:34:09;100713.84;;;25.33;43.44
52032;BME280;38044;45.148;39.604;2023-10-08T05:36:46;100699.34;;;25.58;43.44
52032;BME280;38044;45.148;39.604;2023-10-08T05:39:30;100708.44;;;25.69;43.37
52032;BME280;38044;45.148;39.604;2023-10-08T05:42:06;100700.25;;;25.87;42.62
52032;BME280;38044;45.148;39.604;2023-10-08T05:44:50;100697.06;;;25.81;42.96
52032;BME280;38044;45.148;39.604;2023-10-08T05:47:34;100704.44;;;25.42;43.98
52032;BME280;38044;45.148;39.604;2023-10-08T05:50:01;100703.78;;;25.95;42.98
52032;BME280;38044;45.148;39.604;2023-10-08T05:52:47;100694.34;;;26.53;42.83
52032;BME280;38044;45.148;39.604;2023-10-08T05:55:31;100687.25;;;26.59;42.18
52032;BME280;38044;45.148;39.604;2023-10-08T05:58:12;100684.06;;;26.68;41.37
52032;BME280;38044;45.148;39.604;2023-10-08T06:00:43;100673.81;;;26.68;42.33
52032;BME280;38044;45.148;39.604;2023-10-08T06:03:19;100679.75;;;26.35;42.58
52032;BME280;38044;45.148;39.604;2023-10-08T06:06:01;100665.63;;;26.22;43.23
52032;BME280;38044;45.148;39.604;2023-10-08T06:08:37;100667.59;;;26.00;43.43
52032;BME280;38044;45.148;39.604;2023-10-08T06:11:22;100662.88;;;25.93;43.29
52032;BME280;38044;45.148;39.604;2023-10-08T06:14:07;100650.22;;;26.46;43.11
52032;BME280;38044;45.148;39.604;2023-10-08T06:16:53;100657.34;;;26.11;43.02
52032;BME280;38044;45.148;39.604;2023-10-08T06:19:39;100659.56;;;25.20;44.88
52032;BME280;38044;45.148;39.604;2023-10-08T06:22:05;100658.88;;;25.66;44.65
52032;BME280;38044;45.148;39.604;2023-10-08T06:24:31;100642.06;;;24.72;45.24
52032;BME280;38044;45.148;39.604;2023-10-08T06:26:58;100644.06;;;24.17;46.22
52032;BME280;38044;45.148;39.604;2023-10-08T06:29:30;100643.34;;;24.27;46.63
52032;BME280;38044;45.148;39.604;2023-10-08T06:31:58;100646.13;;;24.34;46.46
52032;BME280;38044;45.148;39.604;2023-10-08T06:34:30;100649.81;;;23.60;47.79
52032;BME280;38044;45.148;39.604;2023-10-08T06:36:58;100636.94;;;23.64;48.40
52032;BME280;38044;45.148;39.604;2023-10-08T06:39:25;100627.91;;;24.67;45.49
52032;BME280;38044;45.148;39.604;2023-10-08T06:41:59;100630.13;;;25.27;43.74
52032;BME280;38044;45.148;39.604;2023-10-08T06:44:25;100612.09;;;25.76;43.47
52032;BME280;38044;45.148;39.604;2023-10-08T06:46:53;100616.03;;;25.86;42.63
52032;BME280;38044;45.148;39.604;2023-10-08T06:49:21;100612.72;;;24.98;43.75
52032;BME280;38044;45.148;39.604;2023-10-08T06:51:50;100604.22;;;25.57;43.68
52032;BME280;38044;45.148;39.604;2023-10-08T06:54:19;100614.84;;;25.62;43.47
52032;BME280;38044;45.148;39.604;2023-10-08T06:56:45;100587.31;;;25.98;42.96
52032;BME280;38044;45.148;39.604;2023-10-08T06:59:13;100596.78;;;26.08;42.49
52032;BME280;38044;45.148;39.604;2023-10-08T07:01:40;100599.50;;;26.11;42.29
52032;BME280;38044;45.148;39.604;2023-10-08T07:04:06;100583.78;;;25.87;42.59
52032;BME280;38044;45.148;39.604;2023-10-08T07:06:42;100594.00;;;26.08;42.17
52032;BME280;38044;45.148;39.604;2023-10-08T07:09:17;100582.94;;;25.32;43.04
52032;BME280;38044;45.148;39.604;2023-10-08T07:12:09;100592.03;;;25.87;43.18
52032;BME280;38044;45.148;39.604;2023-10-08T07:14:39;100584.97;;;25.96;41.98
52032;BME280;38044;45.148;39.604;2023-10-08T07:17:07;100580.59;;;26.17;41.72
52032;BME280;38044;45.148;39.604;2023-10-08T07:19:33;100578.22;;;25.15;43.13
52032;BME280;38044;45.148;39.604;2023-10-08T07:22:08;100543.25;;;25.26;42.91
52032;BME280;38044;45.148;39.604;2023-10-08T07:24:47;100570.41;;;25.63;42.80
52032;BME280;38044;45.148;39.604;2023-10-08T07:27:17;100553.09;;;25.34;43.28
52032;BME280;38044;45.148;39.604;2023-10-08T07:29:48;100556.22;;;25.22;43.44
52032;BME280;38044;45.148;39.604;2023-10-08T07:32:14;100546.41;;;25.46;43.74
52032;BME280;38044;45.148;39.604;2023-10-08T07:34:44;100539.72;;;25.44;44.25
52032;BME280;38044;45.148;39.604;2023-10-08T07:37:10;100549.88;;;24.97;44.17
52032;BME280;38044;45.148;39.604;2023-10-08T07:39:37;100546.38;;;25.07;44.82
52032;BME280;38044;45.148;39.604;2023-10-08T07:42:12;100547.03;;;24.75;44.79
52032;BME280;38044;45.148;39.604;2023-10-08T07:44:38;100542.47;;;25.29;43.89
52032;BME280;38044;45.148;39.604;2023-10-08T07:47:05;100545.88;;;24.83;44.79
52032;BME280;38044;45.148;39.604;2023-10-08T07:49:35;100554.66;;;24.26;45.40
52032;BME280;38044;45.148;39.604;2023-10-08T07:52:02;100541.53;;;24.75;44.21
52032;BME280;38044;45.148;39.604;2023-10-08T07:54:31;100534.47;;;24.70;44.32
52032;BME280;38044;45.148;39.604;2023-10-08T07:57:01;100544.59;;;24.48;44.39
52032;BME280;38044;45.148;39.604;2023-10-08T07:59:41;100542.63;;;24.45;44.99
52032;BME280;38044;45.148;39.604;2023-10-08T08:02:09;100535.09;;;24.39;44.51
52032;BME280;38044;45.148;39.604;2023-10-08T08:04:42;100533.25;;;24.57;43.68
52032;BME280;38044;45.148;39.604;2023-10-08T08:07:11;100508.34;;;24.21;44.19
52032;BME280;38044;45.148;39.604;2023-10-08T08:09:49;100534.13;;;24.06;44.41
52032;BME280;38044;45.148;39.604;2023-10-08T08:12:24;100530.84;;;23.82;45.04
52032;BME280;38044;45.148;39.604;2023-10-08T08:14:54;100524.25;;;24.71;43.74
52032;BME280;38044;45.148;39.604;2023-10-08T08:17:22;100524.06;;;24.24;44.58
52032;BME280;38044;45.148;39.604;2023-10-08T08:19:50;100507.84;;;25.00;42.45
52032;BME280;38044;45.148;39.604;2023-10-08T08:22:17;100519.19;;;24.80;42.33
52032;BME280;38044;45.148;39.604;2023-10-08T08:24:56;100508.69;;;25.22;42.06
52032;BME280;38044;45.148;39.604;2023-10-08T08:27:31;100516.16;;;25.32;41.50
52032;BME280;38044;45.148;39.604;2023-10-08T08:29:58;100520.34;;;26.37;40.12
52032;BME280;38044;45.148;39.604;2023-10-08T08:32:39;100513.84;;;26.83;38.48
52032;BME280;38044;45.148;39.604;2023-10-08T08:35:09;100520.41;;;26.19;39.40
52032;BME280;38044;45.148;39.604;2023-10-08T08:37:36;100506.28;;;25.92;39.48
52032;BME280;38044;45.148;39.604;2023-10-08T08:40:04;100507.91;;;25.50;40.69
52032;BME280;38044;45.148;39.604;2023-10-08T08:42:48;100503.94;;;25.72;40.06
52032;BME280;38044;45.148;39.604;2023-10-08T08:45:23;100512.53;;;24.88;41.95
52032;BME280;38044;45.148;39.604;2023-10-08T08:47:52;100505.25;;;24.37;42.98
52032;BME280;38044;45.148;39.604;2023-10-08T08:50:18;100490.47;;;24.60;42.99
52032;BME280;38044;45.148;39.604;2023-10-08T08:52:45;100492.53;;;25.13;41.75
52032;BME280;38044;45.148;39.604;2023-10-08T08:55:14;100496.03;;;24.85;42.39
52032;BME280;38044;45.148;39.604;2023-10-08T08:57:44;100496.88;;;25.14;42.23
52032;BME280;38044;45.148;39.604;2023-10-08T09:00:12;100464.56;;;24.64;43.31
52032;BME280;38044;45.148;39.604;2023-10-08T09:02:39;100490.13;;;24.79;43.63
52032;BME280;38044;45.148;39.604;2023-10-08T09:05:05;100471.75;;;25.33;42.26
52032;BME280;38044;45.148;39.604;2023-10-08T09:10:20;100466.97;;;25.88;42.41
52032;BME280;38044;45.148;39.604;2023-10-08T09:12:51;100445.78;;;25.13;43.92
52032;BME280;38044;45.148;39.604;2023-10-08T09:15:18;100448.91;;;25.58;43.20
52032;BME280;38044;45.148;39.604;2023-10-08T09:17:45;100474.09;;;25.46;42.38
52032;BME280;38044;45.148;39.604;2023-10-08T09:20:11;100456.72;;;25.92;41.32
52032;BME280;38044;45.148;39.604;2023-10-08T09:22:38;100441.88;;;25.35;42.50
52032;BME280;38044;45.148;39.604;2023-10-08T10:20:25;100387.59;;;24.46;43.64
52032;BME280;38044;45.148;39.604;2023-10-08T10:22:53;100389.91;;;24.41;43.70
52032;BME280;38044;45.148;39.604;2023-10-08T10:25:34;100366.75;;;24.38;44.45
52032;BME280;38044;45.148;39.604;2023-10-08T10:30:33;100383.06;;;23.88;45.81
52032;BME280;38044;45.148;39.604;2023-10-08T10:33:02;100372.44;;;23.79;45.89
52032;BME280;38044;45.148;39.604;2023-10-08T10:35:31;100374.66;;;23.59;45.96
52032;BME280;38044;45.148;39.604;2023-10-08T10:37:58;100381.94;;;23.34;46.22
52032;BME280;38044;45.148;39.604;2023-10-08T10:40:29;100375.38;;;23.46;46.79
52032;BME280;38044;45.148;39.604;2023-10-08T10:43:05;100376.22;;;23.60;45.75
52032;BME280;38044;45.148;39.604;2023-10-08T10:45:41;100353.22;;;23.72;44.04
52032;BME280;38044;45.148;39.604;2023-10-08T10:48:09;100382.44;;;24.27;43.62
52032;BME280;38044;45.148;39.604;2023-10-08T10:50:41;100384.47;;;24.52;44.44
52032;BME280;38044;45.148;39.604;2023-10-08T10:53:18;100358.16;;;24.58;44.44
52032;BME280;38044;45.148;39.604;2023-10-08T10:55:45;100375.44;;;24.55;44.62
52032;BME280;38044;45.148;39.604;2023-10-08T10:58:26;100364.84;;;24.57;44.55
52032;BME280;38044;45.148;39.604;2023-10-08T11:00:53;100349.47;;;24.27;44.86
52032;BME280;38044;45.148;39.604;2023-10-08T11:03:24;100343.19;;;24.30;45.23
52032;BME280;38044;45.148;39.604;2023-10-08T11:05:58;100354.56;;;24.25;45.22
52032;BME280;38044;45.148;39.604;2023-10-08T11:08:26;100349.88;;;24.33;45.42
52032;BME280;38044;45.148;39.604;2023-10-08T11:10:59;100348.66;;;24.19;44.31
52032;BME280;38044;45.148;39.604;2023-10-08T11:13:32;100332.50;;;23.96;45.37
52032;BME280;38044;45.148;39.604;2023-10-08T11:16:04;100356.91;;;24.16;44.77
52032;BME280;38044;45.148;39.604;2023-10-08T11:18:31;100341.53;;;24.00;45.34
52032;BME280;38044;45.148;39.604;2023-10-08T11:21:08;100341.06;;;23.80;45.22
52032;BME280;38044;45.148;39.604;2023-10-08T11:23:51;100346.59;;;23.84;45.49
52032;BME280;38044;45.148;39.604;2023-10-08T11:26:36;100323.66;;;23.44;46.48
52032;BME280;38044;45.148;39.604;2023-10-08T11:29:06;100322.53;;;23.63;46.34
52032;BME280;38044;45.148;39.604;2023-10-08T11:31:40;100336.97;;;23.49;46.55
52032;BME280;38044;45.148;39.604;2023-10-08T11:34:06;100324.88;;;23.57;46.55
52032;BME280;38044;45.148;39.604;2023-10-08T11:36:38;100330.13;;;23.14;47.83
52032;BME280;38044;45.148;39.604;2023-10-08T11:39:22;100328.97;;;23.15;48.05
52032;BME280;38044;45.148;39.604;2023-10-08T11:42:01;100306.44;;;23.54;47.20
52032;BME280;38044;45.148;39.604;2023-10-08T11:44:32;100303.28;;;23.49;47.43
52032;BME280;38044;45.148;39.604;2023-10-08T11:47:04;100296.22;;;23.44;46.81
52032;BME280;38044;45.148;39.604;2023-10-08T11:49:38;100289.53;;;23.38;47.85
52032;BME280;38044;45.148;39.604;2023-10-08T11:52:12;100277.94;;;23.00;48.69
52032;BME280;38044;45.148;39.604;2023-10-08T11:54:44;100288.75;;;22.79;49.22
52032;BME280;38044;45.148;39.604;2023-10-08T11:57:13;100276.94;;;22.75;49.35
52032;BME280;38044;45.148;39.604;2023-10-08T11:59:39;100286.41;;;22.81;50.16
52032;BME280;38044;45.148;39.604;2023-10-08T12:02:06;100265.88;;;22.60;49.97
52032;BME280;38044;45.148;39.604;2023-10-08T12:04:32;100289.44;;;22.68;49.67
52032;BME280;38044;45.148;39.604;2023-10-08T12:06:58;100273.00;;;22.68;50.70
52032;BME280;38044;45.148;39.604;2023-10-08T12:09:28;100287.03;;;22.63;51.22
52032;BME280;38044;45.148;39.604;2023-10-08T12:11:55;100279.06;;;22.44;50.54
52032;BME280;38044;45.148;39.604;2023-10-08T12:14:26;100280.38;;;22.61;50.25
52032;BME280;38044;45.148;39.604;2023-10-08T12:17:01;100283.44;;;22.52;50.94
52032;BME280;38044;45.148;39.604;2023-10-08T12:19:37;100285.69;;;22.43;51.02
52032;BME280;38044;45.148;39.604;2023-10-08T12:22:06;100282.19;;;22.46;51.17
52032;BME280;38044;45.148;39.604;2023-10-08T12:24:34;100276.66;;;22.35;50.09
52032;BME280;38044;45.148;39.604;2023-10-08T12:27:01;100286.91;;;22.49;49.87
52032;BME280;38044;45.148;39.604;2023-10-08T12:29:28;100273.75;;;22.65;48.71
52032;BME280;38044;45.148;39.604;2023-10-08T12:31:54;100269.44;;;22.61;49.70
52032;BME280;38044;45.148;39.604;2023-10-08T12:34:20;100261.97;;;22.58;50.72
52032;BME280;38044;45.148;39.604;2023-10-08T12:36:48;100261.09;;;22.46;51.27
52032;BME280;38044;45.148;39.604;2023-10-08T12:39:14;100266.94;;;22.45;50.82
52032;BME280;38044;45.148;39.604;2023-10-08T12:41:42;100262.34;;;22.56;50.45
52032;BME280;38044;45.148;39.604;2023-10-08T12:44:10;100232.75;;;22.24;51.59
52032;BME280;38044;45.148;39.604;2023-10-08T12:46:36;100245.34;;;22.33;51.45
52032;BME280;38044;45.148;39.604;2023-10-08T12:49:02;100252.16;;;22.12;50.76
52032;BME280;38044;45.148;39.604;2023-10-08T12:51:29;100234.00;;;21.97;51.97
52032;BME280;38044;45.148;39.604;2023-10-08T12:53:59;100265.88;;;22.16;52.14
52032;BME280;38044;45.148;39.604;2023-10-08T12:56:33;100247.47;;;22.13;51.84
52032;BME280;38044;45.148;39.604;2023-10-08T12:59:20;100257.78;;;21.89;52.08
52032;BME280;38044;45.148;39.604;2023-10-08T13:01:49;100240.09;;;21.79;52.32
52032;BME280;38044;45.148;39.604;2023-10-08T13:04:28;100240.50;;;21.81;53.29
52032;BME280;38044;45.148;39.604;2023-10-08T13:06:54;100239.31;;;21.79;53.58
52032;BME280;38044;45.148;39.604;2023-10-08T13:09:26;100230.66;;;21.73;54.09
52032;BME280;38044;45.148;39.604;2023-10-08T13:11:52;100212.59;;;21.69;54.17
52032;BME280;38044;45.148;39.604;2023-10-08T13:14:18;100223.44;;;21.58;54.49
52032;BME280;38044;45.148;39.604;2023-10-08T13:35:55;100196.69;;;21.41;55.40
52032;BME280;38044;45.148;39.604;2023-10-08T13:38:21;100193.13;;;21.36;55.35
52032;BME280;38044;45.148;39.604;2023-10-08T13:40:47;100208.28;;;21.34;55.67
52032;BME280;38044;45.148;39.604;2023-10-08T13:43:35;100213.56;;;21.20;56.21
52032;BME280;38044;45.148;39.604;2023-10-08T13:46:05;100198.50;;;21.03;56.85
52032;BME280;38044;45.148;39.604;2023-10-08T13:48:40;100185.94;;;20.95;56.71
52032;BME280;38044;45.148;39.604;2023-10-08T13:51:07;100181.84;;;20.81;56.67
52032;BME280;38044;45.148;39.604;2023-10-08T13:53:53;100187.63;;;20.76;56.51
52032;BME280;38044;45.148;39.604;2023-10-08T13:56:20;100186.56;;;20.84;56.50
52032;BME280;38044;45.148;39.604;2023-10-08T13:58:50;100188.53;;;20.84;56.16
52032;BME280;38044;45.148;39.604;2023-10-08T14:01:17;100178.34;;;20.81;55.90
52032;BME280;38044;45.148;39.604;2023-10-08T14:03:50;100172.81;;;20.77;55.43
52032;BME280;38044;45.148;39.604;2023-10-08T14:06:20;100168.19;;;20.81;55.76
52032;BME280;38044;45.148;39.604;2023-10-08T14:08:46;100172.41;;;20.75;56.01
52032;BME280;38044;45.148;39.604;2023-10-08T14:11:21;100168.72;;;20.64;56.52
52032;BME280;38044;45.148;39.604;2023-10-08T14:13:55;100162.50;;;20.63;56.76
52032;BME280;38044;45.148;39.604;2023-10-08T14:16:22;100167.13;;;20.63;57.08
52032;BME280;38044;45.148;39.604;2023-10-08T14:18:55;100167.28;;;20.74;56.99
52032;BME280;38044;45.148;39.604;2023-10-08T14:21:21;100154.28;;;20.63;57.03